This is the latest recevied weather packets stored in our database for station/object DC4AT. If no packets are shown the sender has not sent any weather packets the latest 10 day(s).
| Time | Temp. | Humidity | Pressure | Rain* | Wind** | Luminosity | Snow |
|---|---|---|---|---|---|---|---|
| 1777232042 | 9.44° C | 64% | 1024.9 hPa | 0 mm | - | 0 W/m² | - |
| 1777231442 | 9.44° C | 63% | 1024.9 hPa | 0 mm | - | 0 W/m² | - |
| 1777230842 | 9.44° C | 62% | 1024.8 hPa | 0 mm | - | 0 W/m² | - |
| 1777230242 | 10° C | 61% | 1024.7 hPa | 0 mm | - | 0 W/m² | - |
| 1777229642 | 10° C | 62% | 1024.6 hPa | 0 mm | - | 0 W/m² | - |
| 1777229042 | 10° C | 63% | 1024.5 hPa | 0 mm | - | 0 W/m² | - |
| 1777228442 | 10.56° C | 64% | 1024.3 hPa | 0 mm | - | 7 W/m² | - |
| 1777227842 | 10.56° C | 64% | 1024.3 hPa | 0 mm | - | 12 W/m² | - |
| 1777227242 | 11.67° C | 62% | 1024.3 hPa | 0 mm | - | 25 W/m² | - |
| 1777226642 | 12.22° C | 59% | 1024.3 hPa | 0 mm | - | 33 W/m² | - |
| 1777226042 | 12.22° C | 60% | 1024.3 hPa | 0 mm | - | 60 W/m² | - |
| 1777225442 | 13.33° C | 54% | 1024.3 hPa | 0 mm | - | 26 W/m² | - |
| 1777224842 | 13.33° C | 53% | 1024.4 hPa | 0 mm | - | 69 W/m² | - |
| 1777224242 | 13.89° C | 49% | 1024.3 hPa | 0 mm | - | 130 W/m² | - |
| 1777223642 | 14.44° C | 48% | 1024.3 hPa | 0 mm | - | 163 W/m² | - |
| 1777223042 | 13.89° C | 49% | 1024.3 hPa | 0 mm | - | 209 W/m² | - |
| 1777222442 | 13.89° C | 49% | 1024.4 hPa | 0 mm | - | 278 W/m² | - |
| 1777221842 | 13.33° C | 52% | 1024.5 hPa | 0 mm | - | 262 W/m² | - |
| 1777221242 | 13.33° C | 52% | 1024.5 hPa | 0 mm | - | 139 W/m² | - |
| 1777220642 | 13.89° C | 49% | 1024.5 hPa | 0 mm | - | 132 W/m² | - |
| 1777220042 | 13.89° C | 48% | 1024.5 hPa | 0 mm | - | 167 W/m² | - |
| 1777219442 | 13.89° C | 47% | 1024.6 hPa | 0 mm | - | 179 W/m² | - |
| 1777218842 | 13.89° C | 50% | 1024.6 hPa | 0 mm | - | 195 W/m² | - |
| 1777218242 | 13.89° C | 50% | 1024.6 hPa | 0 mm | - | 167 W/m² | - |
| 1777217643 | 13.89° C | 50% | 1024.7 hPa | 0 mm | - | 176 W/m² | - |
* Rain latest hour (hover to see other rain measurements)
** Current wind speed in m/s (hover to see current wind gust speed)